sensor_id;sensor_type;location;lat;lon;timestamp;P1;durP1;ratioP1;P2;durP2;ratioP2
12745;SDS011;6437;53.686;10.030;2023-03-18T00:00:21;13.33;;;3.47;;
12745;SDS011;6437;53.686;10.030;2023-03-18T00:02:23;8.23;;;2.92;;
12745;SDS011;6437;53.686;10.030;2023-03-18T00:04:26;5.72;;;2.05;;
12745;SDS011;6437;53.686;10.030;2023-03-18T00:06:28;5.82;;;3.30;;
12745;SDS011;6437;53.686;10.030;2023-03-18T00:08:30;7.15;;;3.13;;
12745;SDS011;6437;53.686;10.030;2023-03-18T00:10:34;9.70;;;3.13;;
12745;SDS011;6437;53.686;10.030;2023-03-18T00:12:36;7.68;;;2.72;;
12745;SDS011;6437;53.686;10.030;2023-03-18T00:14:38;6.47;;;2.95;;
12745;SDS011;6437;53.686;10.030;2023-03-18T00:16:40;8.25;;;3.40;;
12745;SDS011;6437;53.686;10.030;2023-03-18T00:18:42;4.82;;;2.25;;
12745;SDS011;6437;53.686;10.030;2023-03-18T00:20:44;8.13;;;3.28;;
12745;SDS011;6437;53.686;10.030;2023-03-18T00:22:46;8.10;;;2.67;;
12745;SDS011;6437;53.686;10.030;2023-03-18T00:24:48;8.77;;;2.13;;
12745;SDS011;6437;53.686;10.030;2023-03-18T00:28:54;6.00;;;2.35;;
12745;SDS011;6437;53.686;10.030;2023-03-18T00:31:00;3.97;;;1.83;;
12745;SDS011;6437;53.686;10.030;2023-03-18T00:33:04;7.72;;;3.05;;
12745;SDS011;6437;53.686;10.030;2023-03-18T00:35:06;7.00;;;1.95;;
12745;SDS011;6437;53.686;10.030;2023-03-18T00:37:08;4.93;;;2.08;;
12745;SDS011;6437;53.686;10.030;2023-03-18T00:39:17;5.00;;;1.60;;
12745;SDS011;6437;53.686;10.030;2023-03-18T00:41:25;8.52;;;2.33;;
12745;SDS011;6437;53.686;10.030;2023-03-18T00:43:29;7.75;;;2.05;;
12745;SDS011;6437;53.686;10.030;2023-03-18T00:45:36;4.93;;;2.03;;
12745;SDS011;6437;53.686;10.030;2023-03-18T00:47:39;15.38;;;2.88;;
12745;SDS011;6437;53.686;10.030;2023-03-18T00:49:41;3.90;;;1.83;;
12745;SDS011;6437;53.686;10.030;2023-03-18T00:51:44;5.30;;;2.63;;
12745;SDS011;6437;53.686;10.030;2023-03-18T00:53:48;8.45;;;2.20;;
12745;SDS011;6437;53.686;10.030;2023-03-18T00:55:51;8.57;;;3.10;;
12745;SDS011;6437;53.686;10.030;2023-03-18T00:57:53;7.13;;;2.75;;
12745;SDS011;6437;53.686;10.030;2023-03-18T00:59:56;10.15;;;2.45;;
12745;SDS011;6437;53.686;10.030;2023-03-18T01:01:58;5.45;;;2.00;;
12745;SDS011;6437;53.686;10.030;2023-03-18T01:04:00;11.05;;;2.03;;
12745;SDS011;6437;53.686;10.030;2023-03-18T01:06:03;5.00;;;1.88;;
12745;SDS011;6437;53.686;10.030;2023-03-18T01:08:05;8.63;;;1.85;;
12745;SDS011;6437;53.686;10.030;2023-03-18T01:10:08;7.25;;;2.55;;
12745;SDS011;6437;53.686;10.030;2023-03-18T01:12:11;4.57;;;2.50;;
12745;SDS011;6437;53.686;10.030;2023-03-18T01:16:16;10.23;;;2.78;;
12745;SDS011;6437;53.686;10.030;2023-03-18T01:18:19;9.85;;;2.28;;
12745;SDS011;6437;53.686;10.030;2023-03-18T01:20:22;6.70;;;1.88;;
12745;SDS011;6437;53.686;10.030;2023-03-18T01:22:24;6.20;;;2.10;;
12745;SDS011;6437;53.686;10.030;2023-03-18T01:24:26;5.57;;;1.80;;
12745;SDS011;6437;53.686;10.030;2023-03-18T01:26:28;5.43;;;2.45;;
12745;SDS011;6437;53.686;10.030;2023-03-18T01:28:30;6.55;;;2.40;;
12745;SDS011;6437;53.686;10.030;2023-03-18T01:30:32;5.93;;;2.30;;
12745;SDS011;6437;53.686;10.030;2023-03-18T01:32:36;5.60;;;2.28;;
12745;SDS011;6437;53.686;10.030;2023-03-18T01:34:38;4.85;;;2.00;;
12745;SDS011;6437;53.686;10.030;2023-03-18T01:36:40;15.98;;;2.15;;
12745;SDS011;6437;53.686;10.030;2023-03-18T01:38:42;6.20;;;3.03;;
12745;SDS011;6437;53.686;10.030;2023-03-18T01:40:44;7.95;;;2.17;;
12745;SDS011;6437;53.686;10.030;2023-03-18T01:47:15;7.20;;;1.88;;
12745;SDS011;6437;53.686;10.030;2023-03-18T01:49:19;8.57;;;1.70;;
12745;SDS011;6437;53.686;10.030;2023-03-18T01:51:26;3.70;;;1.40;;
12745;SDS011;6437;53.686;10.030;2023-03-18T01:55:35;7.93;;;2.80;;
12745;SDS011;6437;53.686;10.030;2023-03-18T01:57:38;7.68;;;2.17;;
12745;SDS011;6437;53.686;10.030;2023-03-18T01:59:42;11.50;;;2.72;;
12745;SDS011;6437;53.686;10.030;2023-03-18T02:01:46;7.40;;;2.17;;
12745;SDS011;6437;53.686;10.030;2023-03-18T02:03:52;4.93;;;2.00;;
12745;SDS011;6437;53.686;10.030;2023-03-18T02:05:56;9.95;;;2.35;;
12745;SDS011;6437;53.686;10.030;2023-03-18T02:07:59;11.15;;;2.63;;
12745;SDS011;6437;53.686;10.030;2023-03-18T02:10:05;7.78;;;2.08;;
12745;SDS011;6437;53.686;10.030;2023-03-18T02:12:10;3.38;;;1.80;;
12745;SDS011;6437;53.686;10.030;2023-03-18T02:14:15;5.45;;;1.83;;
12745;SDS011;6437;53.686;10.030;2023-03-18T02:16:20;9.82;;;1.48;;
12745;SDS011;6437;53.686;10.030;2023-03-18T02:18:27;7.38;;;2.95;;
12745;SDS011;6437;53.686;10.030;2023-03-18T02:20:39;6.03;;;1.48;;
12745;SDS011;6437;53.686;10.030;2023-03-18T02:22:50;3.95;;;1.80;;
12745;SDS011;6437;53.686;10.030;2023-03-18T02:24:59;9.10;;;2.08;;
12745;SDS011;6437;53.686;10.030;2023-03-18T02:27:15;5.70;;;2.03;;
12745;SDS011;6437;53.686;10.030;2023-03-18T02:29:18;5.07;;;1.85;;
12745;SDS011;6437;53.686;10.030;2023-03-18T02:31:21;5.82;;;2.25;;
12745;SDS011;6437;53.686;10.030;2023-03-18T02:35:27;5.30;;;1.95;;
12745;SDS011;6437;53.686;10.030;2023-03-18T02:37:31;9.65;;;2.35;;
12745;SDS011;6437;53.686;10.030;2023-03-18T02:39:33;7.20;;;2.47;;
12745;SDS011;6437;53.686;10.030;2023-03-18T02:41:35;3.55;;;1.73;;
12745;SDS011;6437;53.686;10.030;2023-03-18T02:43:38;4.20;;;1.85;;
12745;SDS011;6437;53.686;10.030;2023-03-18T02:45:42;4.53;;;1.63;;
12745;SDS011;6437;53.686;10.030;2023-03-18T02:47:49;7.35;;;1.65;;
12745;SDS011;6437;53.686;10.030;2023-03-18T02:49:52;5.07;;;1.98;;
12745;SDS011;6437;53.686;10.030;2023-03-18T02:51:54;5.07;;;1.55;;
12745;SDS011;6437;53.686;10.030;2023-03-18T02:53:57;8.73;;;2.53;;
12745;SDS011;6437;53.686;10.030;2023-03-18T02:56:03;7.53;;;2.15;;
12745;SDS011;6437;53.686;10.030;2023-03-18T02:58:06;5.20;;;2.42;;
12745;SDS011;6437;53.686;10.030;2023-03-18T03:00:10;8.02;;;2.28;;
12745;SDS011;6437;53.686;10.030;2023-03-18T03:02:12;9.80;;;2.22;;
12745;SDS011;6437;53.686;10.030;2023-03-18T03:04:14;9.70;;;3.08;;
12745;SDS011;6437;53.686;10.030;2023-03-18T03:06:16;10.75;;;2.17;;
12745;SDS011;6437;53.686;10.030;2023-03-18T03:08:18;4.00;;;1.70;;
12745;SDS011;6437;53.686;10.030;2023-03-18T03:10:20;6.90;;;2.22;;
12745;SDS011;6437;53.686;10.030;2023-03-18T03:12:22;8.98;;;2.33;;
12745;SDS011;6437;53.686;10.030;2023-03-18T03:14:24;18.08;;;3.05;;
12745;SDS011;6437;53.686;10.030;2023-03-18T03:16:27;4.55;;;1.40;;
12745;SDS011;6437;53.686;10.030;2023-03-18T03:18:29;6.60;;;2.70;;
12745;SDS011;6437;53.686;10.030;2023-03-18T03:20:31;4.40;;;1.92;;
12745;SDS011;6437;53.686;10.030;2023-03-18T03:22:36;9.63;;;2.60;;
12745;SDS011;6437;53.686;10.030;2023-03-18T03:24:38;10.15;;;2.45;;
12745;SDS011;6437;53.686;10.030;2023-03-18T03:26:40;7.60;;;2.10;;
12745;SDS011;6437;53.686;10.030;2023-03-18T03:28:42;8.70;;;1.58;;
12745;SDS011;6437;53.686;10.030;2023-03-18T03:30:45;9.50;;;2.40;;
12745;SDS011;6437;53.686;10.030;2023-03-18T03:32:48;9.60;;;3.03;;
12745;SDS011;6437;53.686;10.030;2023-03-18T03:34:50;10.75;;;2.42;;
12745;SDS011;6437;53.686;10.030;2023-03-18T03:36:52;5.57;;;1.55;;
12745;SDS011;6437;53.686;10.030;2023-03-18T03:38:54;5.82;;;2.13;;
12745;SDS011;6437;53.686;10.030;2023-03-18T03:40:55;7.28;;;2.08;;
12745;SDS011;6437;53.686;10.030;2023-03-18T03:42:57;7.32;;;2.30;;
12745;SDS011;6437;53.686;10.030;2023-03-18T03:44:59;6.05;;;2.92;;
12745;SDS011;6437;53.686;10.030;2023-03-18T03:47:01;5.30;;;1.45;;
12745;SDS011;6437;53.686;10.030;2023-03-18T03:49:04;7.70;;;2.13;;
12745;SDS011;6437;53.686;10.030;2023-03-18T03:51:06;7.82;;;2.00;;
12745;SDS011;6437;53.686;10.030;2023-03-18T03:53:08;16.23;;;2.78;;
12745;SDS011;6437;53.686;10.030;2023-03-18T03:55:11;7.75;;;2.10;;
12745;SDS011;6437;53.686;10.030;2023-03-18T03:57:15;4.93;;;1.73;;
12745;SDS011;6437;53.686;10.030;2023-03-18T03:59:17;11.35;;;3.35;;
12745;SDS011;6437;53.686;10.030;2023-03-18T04:01:19;7.25;;;1.65;;
12745;SDS011;6437;53.686;10.030;2023-03-18T04:03:20;9.52;;;2.15;;
12745;SDS011;6437;53.686;10.030;2023-03-18T04:05:24;12.45;;;2.67;;
12745;SDS011;6437;53.686;10.030;2023-03-18T04:07:25;7.85;;;2.08;;
12745;SDS011;6437;53.686;10.030;2023-03-18T04:09:27;4.97;;;2.17;;
12745;SDS011;6437;53.686;10.030;2023-03-18T04:11:29;9.02;;;2.38;;
12745;SDS011;6437;53.686;10.030;2023-03-18T04:13:31;14.55;;;2.78;;
12745;SDS011;6437;53.686;10.030;2023-03-18T04:15:33;10.85;;;2.95;;
12745;SDS011;6437;53.686;10.030;2023-03-18T04:17:35;5.68;;;2.03;;
12745;SDS011;6437;53.686;10.030;2023-03-18T04:19:36;8.43;;;1.77;;
12745;SDS011;6437;53.686;10.030;2023-03-18T04:21:40;8.00;;;1.75;;
12745;SDS011;6437;53.686;10.030;2023-03-18T04:23:41;8.68;;;2.22;;
12745;SDS011;6437;53.686;10.030;2023-03-18T04:25:43;12.32;;;3.03;;
12745;SDS011;6437;53.686;10.030;2023-03-18T04:27:45;5.30;;;2.78;;
12745;SDS011;6437;53.686;10.030;2023-03-18T04:29:47;9.32;;;3.58;;
12745;SDS011;6437;53.686;10.030;2023-03-18T04:31:49;6.32;;;2.42;;
12745;SDS011;6437;53.686;10.030;2023-03-18T04:33:51;6.57;;;3.28;;
12745;SDS011;6437;53.686;10.030;2023-03-18T04:35:52;8.15;;;2.17;;
12745;SDS011;6437;53.686;10.030;2023-03-18T04:37:56;10.23;;;2.80;;
12745;SDS011;6437;53.686;10.030;2023-03-18T04:39:58;6.60;;;3.17;;
12745;SDS011;6437;53.686;10.030;2023-03-18T04:44:01;7.05;;;2.35;;
12745;SDS011;6437;53.686;10.030;2023-03-18T04:46:03;5.40;;;2.30;;
12745;SDS011;6437;53.686;10.030;2023-03-18T04:48:05;9.80;;;3.33;;
12745;SDS011;6437;53.686;10.030;2023-03-18T04:50:07;10.13;;;2.92;;
12745;SDS011;6437;53.686;10.030;2023-03-18T04:52:11;14.80;;;3.28;;
12745;SDS011;6437;53.686;10.030;2023-03-18T04:54:14;9.57;;;3.13;;
12745;SDS011;6437;53.686;10.030;2023-03-18T04:56:16;9.85;;;2.60;;
12745;SDS011;6437;53.686;10.030;2023-03-18T04:58:18;10.88;;;4.07;;
12745;SDS011;6437;53.686;10.030;2023-03-18T05:00:20;13.27;;;3.88;;
12745;SDS011;6437;53.686;10.030;2023-03-18T05:02:22;10.57;;;3.03;;
12745;SDS011;6437;53.686;10.030;2023-03-18T05:04:24;12.55;;;4.32;;
12745;SDS011;6437;53.686;10.030;2023-03-18T05:06:27;10.15;;;4.28;;
12745;SDS011;6437;53.686;10.030;2023-03-18T05:08:30;11.13;;;4.07;;
12745;SDS011;6437;53.686;10.030;2023-03-18T05:10:33;9.02;;;2.97;;
12745;SDS011;6437;53.686;10.030;2023-03-18T05:12:36;11.45;;;3.50;;
12745;SDS011;6437;53.686;10.030;2023-03-18T05:14:37;6.85;;;3.35;;
12745;SDS011;6437;53.686;10.030;2023-03-18T05:16:39;12.38;;;3.83;;
12745;SDS011;6437;53.686;10.030;2023-03-18T05:18:41;11.27;;;4.88;;
12745;SDS011;6437;53.686;10.030;2023-03-18T05:22:46;11.00;;;3.53;;
12745;SDS011;6437;53.686;10.030;2023-03-18T05:24:47;10.68;;;3.72;;
12745;SDS011;6437;53.686;10.030;2023-03-18T05:26:51;11.07;;;3.35;;
12745;SDS011;6437;53.686;10.030;2023-03-18T05:28:53;8.68;;;4.00;;
12745;SDS011;6437;53.686;10.030;2023-03-18T05:30:56;10.85;;;3.95;;
12745;SDS011;6437;53.686;10.030;2023-03-18T05:32:58;10.50;;;4.70;;
12745;SDS011;6437;53.686;10.030;2023-03-18T05:34:59;10.95;;;4.63;;
12745;SDS011;6437;53.686;10.030;2023-03-18T05:37:03;12.95;;;4.80;;
12745;SDS011;6437;53.686;10.030;2023-03-18T05:39:05;7.28;;;4.63;;
12745;SDS011;6437;53.686;10.030;2023-03-18T05:41:07;12.05;;;4.90;;
12745;SDS011;6437;53.686;10.030;2023-03-18T05:43:10;15.40;;;5.97;;
12745;SDS011;6437;53.686;10.030;2023-03-18T05:45:12;11.20;;;5.45;;
12745;SDS011;6437;53.686;10.030;2023-03-18T05:47:14;15.65;;;6.57;;
12745;SDS011;6437;53.686;10.030;2023-03-18T05:51:18;13.70;;;6.90;;
12745;SDS011;6437;53.686;10.030;2023-03-18T05:53:20;18.00;;;6.63;;
12745;SDS011;6437;53.686;10.030;2023-03-18T05:55:22;19.80;;;6.65;;
12745;SDS011;6437;53.686;10.030;2023-03-18T05:57:24;21.27;;;7.13;;
12745;SDS011;6437;53.686;10.030;2023-03-18T05:59:27;12.93;;;6.97;;
12745;SDS011;6437;53.686;10.030;2023-03-18T06:01:30;15.43;;;6.80;;
12745;SDS011;6437;53.686;10.030;2023-03-18T06:03:32;18.75;;;7.43;;
12745;SDS011;6437;53.686;10.030;2023-03-18T06:05:34;20.35;;;7.35;;
12745;SDS011;6437;53.686;10.030;2023-03-18T06:07:36;12.15;;;6.05;;
12745;SDS011;6437;53.686;10.030;2023-03-18T06:09:38;16.08;;;6.13;;
12745;SDS011;6437;53.686;10.030;2023-03-18T06:11:40;11.85;;;6.78;;
12745;SDS011;6437;53.686;10.030;2023-03-18T06:13:42;16.60;;;6.90;;
12745;SDS011;6437;53.686;10.030;2023-03-18T06:15:45;11.20;;;6.72;;
12745;SDS011;6437;53.686;10.030;2023-03-18T06:17:47;15.32;;;5.82;;
12745;SDS011;6437;53.686;10.030;2023-03-18T06:19:49;13.85;;;7.22;;
12745;SDS011;6437;53.686;10.030;2023-03-18T06:21:51;23.42;;;7.78;;
12745;SDS011;6437;53.686;10.030;2023-03-18T06:23:53;18.77;;;6.32;;
12745;SDS011;6437;53.686;10.030;2023-03-18T06:25:55;17.40;;;7.13;;
12745;SDS011;6437;53.686;10.030;2023-03-18T06:27:57;27.10;;;8.85;;
12745;SDS011;6437;53.686;10.030;2023-03-18T06:29:59;18.05;;;6.90;;
12745;SDS011;6437;53.686;10.030;2023-03-18T06:32:03;14.25;;;7.03;;
12745;SDS011;6437;53.686;10.030;2023-03-18T06:34:07;12.77;;;6.28;;
12745;SDS011;6437;53.686;10.030;2023-03-18T06:36:08;17.52;;;6.75;;
12745;SDS011;6437;53.686;10.030;2023-03-18T06:38:10;18.48;;;8.65;;
12745;SDS011;6437;53.686;10.030;2023-03-18T06:40:13;22.05;;;7.38;;
12745;SDS011;6437;53.686;10.030;2023-03-18T06:42:16;17.58;;;7.35;;
12745;SDS011;6437;53.686;10.030;2023-03-18T06:44:18;20.38;;;6.70;;
12745;SDS011;6437;53.686;10.030;2023-03-18T06:46:19;13.90;;;7.22;;
12745;SDS011;6437;53.686;10.030;2023-03-18T06:48:24;19.10;;;7.93;;
12745;SDS011;6437;53.686;10.030;2023-03-18T06:50:26;16.85;;;7.60;;
12745;SDS011;6437;53.686;10.030;2023-03-18T06:52:28;16.70;;;7.25;;
12745;SDS011;6437;53.686;10.030;2023-03-18T06:54:30;12.60;;;7.25;;
12745;SDS011;6437;53.686;10.030;2023-03-18T06:56:33;12.15;;;7.28;;
12745;SDS011;6437;53.686;10.030;2023-03-18T06:58:37;19.33;;;7.38;;
12745;SDS011;6437;53.686;10.030;2023-03-18T07:00:39;21.25;;;7.60;;
12745;SDS011;6437;53.686;10.030;2023-03-18T07:06:47;15.10;;;8.60;;
12745;SDS011;6437;53.686;10.030;2023-03-18T07:08:49;14.63;;;6.80;;
12745;SDS011;6437;53.686;10.030;2023-03-18T07:10:52;16.27;;;7.45;;
12745;SDS011;6437;53.686;10.030;2023-03-18T07:12:54;16.70;;;7.53;;
12745;SDS011;6437;53.686;10.030;2023-03-18T07:14:56;15.70;;;7.47;;
12745;SDS011;6437;53.686;10.030;2023-03-18T07:16:58;20.40;;;7.32;;
12745;SDS011;6437;53.686;10.030;2023-03-18T07:19:01;12.30;;;7.47;;
12745;SDS011;6437;53.686;10.030;2023-03-18T07:21:04;15.23;;;7.22;;
12745;SDS011;6437;53.686;10.030;2023-03-18T07:23:06;20.88;;;8.60;;
12745;SDS011;6437;53.686;10.030;2023-03-18T07:25:11;14.25;;;6.80;;
12745;SDS011;6437;53.686;10.030;2023-03-18T07:27:13;20.80;;;7.97;;
12745;SDS011;6437;53.686;10.030;2023-03-18T07:29:15;20.70;;;7.22;;
12745;SDS011;6437;53.686;10.030;2023-03-18T07:31:18;19.15;;;7.80;;
12745;SDS011;6437;53.686;10.030;2023-03-18T07:33:20;17.92;;;8.00;;
12745;SDS011;6437;53.686;10.030;2023-03-18T07:35:22;12.35;;;7.25;;
12745;SDS011;6437;53.686;10.030;2023-03-18T07:37:26;18.48;;;7.80;;
12745;SDS011;6437;53.686;10.030;2023-03-18T07:39:27;16.05;;;7.25;;
12745;SDS011;6437;53.686;10.030;2023-03-18T07:41:29;16.30;;;6.72;;
12745;SDS011;6437;53.686;10.030;2023-03-18T07:43:31;22.73;;;7.95;;
12745;SDS011;6437;53.686;10.030;2023-03-18T07:45:34;19.25;;;7.82;;
12745;SDS011;6437;53.686;10.030;2023-03-18T07:49:37;15.50;;;8.30;;
12745;SDS011;6437;53.686;10.030;2023-03-18T07:51:40;10.48;;;6.35;;
12745;SDS011;6437;53.686;10.030;2023-03-18T07:53:43;17.20;;;8.48;;
12745;SDS011;6437;53.686;10.030;2023-03-18T07:55:46;18.58;;;7.95;;
12745;SDS011;6437;53.686;10.030;2023-03-18T07:57:48;18.60;;;7.68;;
12745;SDS011;6437;53.686;10.030;2023-03-18T07:59:50;15.45;;;8.07;;
12745;SDS011;6437;53.686;10.030;2023-03-18T08:01:52;14.77;;;8.18;;
12745;SDS011;6437;53.686;10.030;2023-03-18T08:03:54;15.57;;;8.05;;
12745;SDS011;6437;53.686;10.030;2023-03-18T08:05:55;15.15;;;7.82;;
12745;SDS011;6437;53.686;10.030;2023-03-18T08:07:57;15.05;;;8.80;;
12745;SDS011;6437;53.686;10.030;2023-03-18T08:10:08;17.15;;;7.38;;
12745;SDS011;6437;53.686;10.030;2023-03-18T08:12:11;27.20;;;8.43;;
12745;SDS011;6437;53.686;10.030;2023-03-18T08:14:13;17.25;;;8.50;;
12745;SDS011;6437;53.686;10.030;2023-03-18T08:16:15;19.75;;;7.82;;
12745;SDS011;6437;53.686;10.030;2023-03-18T08:18:17;21.60;;;8.05;;
12745;SDS011;6437;53.686;10.030;2023-03-18T08:20:20;13.93;;;8.13;;
12745;SDS011;6437;53.686;10.030;2023-03-18T08:22:22;21.58;;;8.93;;
12745;SDS011;6437;53.686;10.030;2023-03-18T08:24:24;17.58;;;9.23;;
12745;SDS011;6437;53.686;10.030;2023-03-18T08:26:28;17.48;;;7.78;;
12745;SDS011;6437;53.686;10.030;2023-03-18T08:28:30;19.35;;;9.45;;
12745;SDS011;6437;53.686;10.030;2023-03-18T08:30:32;19.70;;;9.30;;
12745;SDS011;6437;53.686;10.030;2023-03-18T08:32:34;20.08;;;8.27;;
12745;SDS011;6437;53.686;10.030;2023-03-18T08:34:36;15.80;;;8.65;;
12745;SDS011;6437;53.686;10.030;2023-03-18T08:36:39;19.13;;;8.57;;
12745;SDS011;6437;53.686;10.030;2023-03-18T08:38:41;13.85;;;8.25;;
12745;SDS011;6437;53.686;10.030;2023-03-18T08:42:46;18.00;;;8.17;;
12745;SDS011;6437;53.686;10.030;2023-03-18T08:44:48;21.48;;;8.82;;
12745;SDS011;6437;53.686;10.030;2023-03-18T08:46:51;22.98;;;9.52;;
12745;SDS011;6437;53.686;10.030;2023-03-18T08:48:52;16.92;;;6.88;;
12745;SDS011;6437;53.686;10.030;2023-03-18T08:50:54;16.33;;;7.63;;
12745;SDS011;6437;53.686;10.030;2023-03-18T08:52:56;20.17;;;7.93;;
12745;SDS011;6437;53.686;10.030;2023-03-18T08:54:59;22.02;;;8.70;;
12745;SDS011;6437;53.686;10.030;2023-03-18T08:57:02;20.33;;;9.15;;
12745;SDS011;6437;53.686;10.030;2023-03-18T08:59:05;17.58;;;8.63;;
12745;SDS011;6437;53.686;10.030;2023-03-18T09:01:07;19.52;;;9.50;;
12745;SDS011;6437;53.686;10.030;2023-03-18T09:03:09;19.55;;;9.80;;
12745;SDS011;6437;53.686;10.030;2023-03-18T09:05:11;25.25;;;8.45;;
12745;SDS011;6437;53.686;10.030;2023-03-18T09:07:14;20.80;;;9.52;;
12745;SDS011;6437;53.686;10.030;2023-03-18T09:09:16;18.92;;;8.35;;
12745;SDS011;6437;53.686;10.030;2023-03-18T09:11:18;13.98;;;8.55;;
12745;SDS011;6437;53.686;10.030;2023-03-18T09:13:20;12.80;;;7.97;;
12745;SDS011;6437;53.686;10.030;2023-03-18T09:15:23;17.92;;;7.25;;
12745;SDS011;6437;53.686;10.030;2023-03-18T09:17:26;18.33;;;8.68;;
12745;SDS011;6437;53.686;10.030;2023-03-18T09:19:28;16.67;;;7.57;;
12745;SDS011;6437;53.686;10.030;2023-03-18T09:21:30;21.45;;;8.50;;
12745;SDS011;6437;53.686;10.030;2023-03-18T09:23:32;23.70;;;8.90;;
12745;SDS011;6437;53.686;10.030;2023-03-18T09:25:35;18.60;;;7.85;;
12745;SDS011;6437;53.686;10.030;2023-03-18T09:27:37;16.23;;;9.40;;
12745;SDS011;6437;53.686;10.030;2023-03-18T09:29:39;17.65;;;8.32;;
12745;SDS011;6437;53.686;10.030;2023-03-18T09:31:42;18.55;;;8.88;;
12745;SDS011;6437;53.686;10.030;2023-03-18T09:33:44;14.40;;;8.65;;
12745;SDS011;6437;53.686;10.030;2023-03-18T09:35:46;21.13;;;9.43;;
12745;SDS011;6437;53.686;10.030;2023-03-18T09:37:49;20.00;;;8.68;;
12745;SDS011;6437;53.686;10.030;2023-03-18T09:39:52;18.38;;;9.07;;
12745;SDS011;6437;53.686;10.030;2023-03-18T09:44:08;15.82;;;8.23;;
12745;SDS011;6437;53.686;10.030;2023-03-18T09:46:19;18.00;;;9.23;;
12745;SDS011;6437;53.686;10.030;2023-03-18T09:48:30;17.95;;;8.32;;
12745;SDS011;6437;53.686;10.030;2023-03-18T09:50:44;15.57;;;9.07;;
12745;SDS011;6437;53.686;10.030;2023-03-18T09:52:56;19.42;;;9.52;;
12745;SDS011;6437;53.686;10.030;2023-03-18T09:57:14;15.02;;;8.82;;
12745;SDS011;6437;53.686;10.030;2023-03-18T09:59:20;13.25;;;7.93;;
12745;SDS011;6437;53.686;10.030;2023-03-18T10:01:25;16.15;;;7.78;;
12745;SDS011;6437;53.686;10.030;2023-03-18T10:03:33;19.30;;;9.35;;
12745;SDS011;6437;53.686;10.030;2023-03-18T10:05:39;18.67;;;7.28;;
12745;SDS011;6437;53.686;10.030;2023-03-18T10:07:48;20.08;;;8.43;;
12745;SDS011;6437;53.686;10.030;2023-03-18T10:09:55;18.10;;;8.73;;
12745;SDS011;6437;53.686;10.030;2023-03-18T10:12:04;17.95;;;8.35;;
12745;SDS011;6437;53.686;10.030;2023-03-18T10:14:32;19.92;;;8.50;;
12745;SDS011;6437;53.686;10.030;2023-03-18T10:16:42;14.13;;;8.38;;
12745;SDS011;6437;53.686;10.030;2023-03-18T10:18:53;24.55;;;8.45;;
12745;SDS011;6437;53.686;10.030;2023-03-18T10:20:57;24.58;;;8.93;;
12745;SDS011;6437;53.686;10.030;2023-03-18T10:23:12;15.50;;;8.82;;
12745;SDS011;6437;53.686;10.030;2023-03-18T10:25:25;18.08;;;9.07;;
12745;SDS011;6437;53.686;10.030;2023-03-18T10:27:37;16.80;;;8.00;;
12745;SDS011;6437;53.686;10.030;2023-03-18T10:29:50;16.58;;;8.45;;
12745;SDS011;6437;53.686;10.030;2023-03-18T10:32:02;19.83;;;8.18;;
12745;SDS011;6437;53.686;10.030;2023-03-18T10:34:13;16.33;;;7.80;;
12745;SDS011;6437;53.686;10.030;2023-03-18T10:36:17;19.88;;;8.98;;
12745;SDS011;6437;53.686;10.030;2023-03-18T10:38:23;22.75;;;8.85;;
12745;SDS011;6437;53.686;10.030;2023-03-18T10:40:28;14.35;;;8.23;;
12745;SDS011;6437;53.686;10.030;2023-03-18T10:42:38;15.52;;;8.13;;
12745;SDS011;6437;53.686;10.030;2023-03-18T10:44:41;24.58;;;8.57;;
12745;SDS011;6437;53.686;10.030;2023-03-18T10:46:45;17.00;;;7.72;;
12745;SDS011;6437;53.686;10.030;2023-03-18T10:48:53;15.95;;;8.63;;
12745;SDS011;6437;53.686;10.030;2023-03-18T10:51:02;12.07;;;6.82;;
12745;SDS011;6437;53.686;10.030;2023-03-18T10:53:12;16.52;;;8.43;;
12745;SDS011;6437;53.686;10.030;2023-03-18T10:55:20;16.65;;;9.07;;
12745;SDS011;6437;53.686;10.030;2023-03-18T10:57:24;12.23;;;7.32;;
12745;SDS011;6437;53.686;10.030;2023-03-18T10:59:26;19.95;;;6.78;;
12745;SDS011;6437;53.686;10.030;2023-03-18T11:01:29;12.45;;;6.40;;
12745;SDS011;6437;53.686;10.030;2023-03-18T11:03:32;11.48;;;5.78;;
12745;SDS011;6437;53.686;10.030;2023-03-18T11:05:35;10.43;;;5.05;;
12745;SDS011;6437;53.686;10.030;2023-03-18T11:10:09;10.90;;;5.88;;
12745;SDS011;6437;53.686;10.030;2023-03-18T11:12:18;9.20;;;5.30;;
12745;SDS011;6437;53.686;10.030;2023-03-18T11:14:27;11.85;;;5.60;;
12745;SDS011;6437;53.686;10.030;2023-03-18T11:16:35;11.88;;;5.68;;
12745;SDS011;6437;53.686;10.030;2023-03-18T11:18:39;15.30;;;5.50;;
12745;SDS011;6437;53.686;10.030;2023-03-18T11:20:45;9.50;;;5.13;;
12745;SDS011;6437;53.686;10.030;2023-03-18T11:22:54;9.50;;;4.57;;
12745;SDS011;6437;53.686;10.030;2023-03-18T11:25:12;10.32;;;4.18;;
12745;SDS011;6437;53.686;10.030;2023-03-18T11:27:25;7.13;;;5.13;;
12745;SDS011;6437;53.686;10.030;2023-03-18T11:29:30;11.65;;;5.82;;
12745;SDS011;6437;53.686;10.030;2023-03-18T11:31:40;16.73;;;6.03;;
12745;SDS011;6437;53.686;10.030;2023-03-18T11:33:49;14.88;;;6.22;;
12745;SDS011;6437;53.686;10.030;2023-03-18T11:35:58;16.17;;;6.03;;
12745;SDS011;6437;53.686;10.030;2023-03-18T11:38:11;15.30;;;7.03;;
12745;SDS011;6437;53.686;10.030;2023-03-18T11:40:17;12.65;;;6.20;;
12745;SDS011;6437;53.686;10.030;2023-03-18T11:42:22;7.72;;;5.72;;
12745;SDS011;6437;53.686;10.030;2023-03-18T11:44:27;10.07;;;6.13;;
12745;SDS011;6437;53.686;10.030;2023-03-18T11:46:31;14.73;;;6.13;;
12745;SDS011;6437;53.686;10.030;2023-03-18T11:48:36;12.50;;;6.13;;
12745;SDS011;6437;53.686;10.030;2023-03-18T11:50:41;11.18;;;5.97;;
12745;SDS011;6437;53.686;10.030;2023-03-18T11:52:54;12.75;;;6.75;;
12745;SDS011;6437;53.686;10.030;2023-03-18T11:55:08;8.95;;;5.28;;
12745;SDS011;6437;53.686;10.030;2023-03-18T11:57:21;16.10;;;6.28;;
12745;SDS011;6437;53.686;10.030;2023-03-18T11:59:32;12.32;;;6.22;;
12745;SDS011;6437;53.686;10.030;2023-03-18T12:01:48;11.30;;;6.30;;
12745;SDS011;6437;53.686;10.030;2023-03-18T12:04:09;7.85;;;6.00;;
12745;SDS011;6437;53.686;10.030;2023-03-18T12:06:22;13.60;;;7.10;;
12745;SDS011;6437;53.686;10.030;2023-03-18T12:08:30;17.85;;;6.05;;
12745;SDS011;6437;53.686;10.030;2023-03-18T12:10:44;8.45;;;6.05;;
12745;SDS011;6437;53.686;10.030;2023-03-18T12:13:02;18.85;;;7.57;;
12745;SDS011;6437;53.686;10.030;2023-03-18T12:15:19;21.35;;;7.70;;
12745;SDS011;6437;53.686;10.030;2023-03-18T12:17:34;15.13;;;8.45;;
12745;SDS011;6437;53.686;10.030;2023-03-18T12:19:50;13.52;;;7.10;;
12745;SDS011;6437;53.686;10.030;2023-03-18T12:24:49;13.45;;;6.35;;
12745;SDS011;6437;53.686;10.030;2023-03-18T12:27:04;17.67;;;7.00;;
12745;SDS011;6437;53.686;10.030;2023-03-18T12:29:30;13.43;;;7.28;;
12745;SDS011;6437;53.686;10.030;2023-03-18T12:31:51;11.32;;;6.43;;
12745;SDS011;6437;53.686;10.030;2023-03-18T12:34:03;9.32;;;6.18;;
12745;SDS011;6437;53.686;10.030;2023-03-18T12:36:11;16.50;;;7.75;;
12745;SDS011;6437;53.686;10.030;2023-03-18T12:38:43;18.13;;;6.22;;
12745;SDS011;6437;53.686;10.030;2023-03-18T12:41:06;16.38;;;6.85;;
12745;SDS011;6437;53.686;10.030;2023-03-18T12:45:43;10.10;;;6.05;;
12745;SDS011;6437;53.686;10.030;2023-03-18T12:47:47;14.98;;;6.78;;
12745;SDS011;6437;53.686;10.030;2023-03-18T12:49:53;11.20;;;5.80;;
12745;SDS011;6437;53.686;10.030;2023-03-18T12:51:59;12.98;;;6.25;;
12745;SDS011;6437;53.686;10.030;2023-03-18T12:54:07;14.98;;;6.32;;
12745;SDS011;6437;53.686;10.030;2023-03-18T12:56:16;13.85;;;6.45;;
12745;SDS011;6437;53.686;10.030;2023-03-18T12:58:21;8.25;;;5.97;;
12745;SDS011;6437;53.686;10.030;2023-03-18T13:00:28;11.32;;;5.88;;